Latest Weather Observations for Bendigo

IDV60801

Issued at 4:02 pm EST Friday 29 May 2015 (issued every 30 minutes, with the page automatically refreshed every 10 minutes)

About weather observations | Map of weather stations | Latest weather observations for VIC | Other Formats
Station Details ID: 081123 Name: BENDIGO AIRPORT Lat: -36.74 Lon: 144.33 Height: 208.0 m
Data from the previous 72 hours. | See also: Recent months at Bendigo
Date/Time
EST
Temp
°C
App
Temp
°C
Dew
Point
Rel
Hum
%
Delta-T
°C
Wind Press
QNH
hPa
Press
MSL
hPa
Rain
since 9 am
mm
Dir
 
Spd
km/h
Gust
km/h
Spd
kts
Gust
kts
29/04:00pm 13.2 10.3 4.9 57 3.9 W 9 15 5 8 1021.9 1022.0 0.0
29/03:30pm 13.2 9.5 4.4 55 4.1 W 13 19 7 10 1021.9 1022.0 0.0
29/03:00pm 13.4 9.4 4.8 56 4.0 WNW 15 24 8 13 1021.6 1021.8 0.0
29/02:30pm 13.3 8.9 4.5 55 4.1 WNW 17 24 9 13 1021.5 1021.7 0.0
29/02:00pm 13.5 12.1 5.7 59 3.7 WNW 2 7 1 4 1021.6 1021.8 0.0
29/01:30pm 13.4 10.6 5.3 58 3.8 WNW 9 15 5 8 1022.0 1022.1 0.0
29/01:00pm 13.4 10.2 5.1 57 3.9 WNW 11 19 6 10 1022.2 1022.3 0.0
29/12:30pm 13.5 10.3 5.2 57 3.9 W 11 22 6 12 1022.3 1022.4 0.0
29/12:00pm 13.2 9.4 5.9 61 3.5 WSW 15 22 8 12 1022.6 1022.7 0.0
29/11:30am 12.5 9.2 6.3 66 3.0 WSW 13 20 7 11 1022.9 1023.0 0.0
29/11:00am 12.2 9.1 7.3 72 2.4 W 13 19 7 10 1023.1 1023.2 0.0
29/10:30am 11.3 7.8 7.4 77 1.9 SW 15 20 8 11 1023.2 1023.3 0.0
29/10:00am 10.2 7.4 8.5 89 0.8 W 13 19 7 10 1023.1 1023.2 0.0
29/09:49am 9.4 6.3 8.9 97 0.2 WSW 15 19 8 10 1023.1 1023.2 0.0
29/09:30am 8.5 6.0 8.4 99 0.0 W 11 15 6 8 1023.1 1023.2 0.0
29/09:25am 8.3 5.8 8.2 99 0.0 W 11 15 6 8 1023.1 1023.2 0.0
29/09:00am 7.8 5.6 7.7 99 0.0 WNW 9 13 5 7 1022.8 1022.9 0.4
29/08:30am 7.5 5.8 7.4 99 0.0 WSW 6 9 3 5 1022.5 1022.6 0.4
29/08:00am 7.4 6.0 7.3 99 0.0 WNW 4 7 2 4 1022.1 1022.2 0.4
29/07:30am 6.6 5.8 6.5 99 0.0 CALM 0 0 0 0 1021.5 1021.7 0.4
29/07:00am 4.9 3.7 4.8 99 0.0 CALM 0 0 0 0 1021.0 1021.2 0.2
29/06:30am 2.6 1.0 2.5 99 0.0 CALM 0 0 0 0 1020.9 1021.1 0.2
29/06:00am 3.3 1.8 3.2 99 0.0 CALM 0 6 0 3 1020.5 1020.7 0.2
29/05:56am 3.2 1.3 3.1 99 0.0 SSE 2 6 1 3 1020.4 1020.6 0.2
29/05:30am 3.6 2.2 3.5 99 0.0 CALM 0 0 0 0 1020.2 1020.4 0.2
29/05:01am 4.7 3.5 4.6 99 0.0 CALM 0 0 0 0 1020.1 1020.3 0.2
29/05:00am 5.0 3.9 4.9 99 0.0 CALM 0 0 0 0 1020.0 1020.2 0.2
29/04:46am 4.9 3.7 4.8 99 0.0 CALM 0 0 0 0 1020.1 1020.3 0.2
29/04:30am 4.0 2.6 3.6 97 0.2 CALM 0 0 0 0 1019.9 1020.1 0.2
29/04:07am 5.4 4.3 5.0 97 0.2 CALM 0 0 0 0 1019.4 1019.6 0.2
29/04:00am 6.0 5.0 5.7 98 0.1 CALM 0 0 0 0 1019.3 1019.4 0.2
29/03:30am 6.4 5.5 6.0 97 0.2 CALM 0 0 0 0 1019.2 1019.3 0.2
29/03:00am 7.0 6.2 6.4 96 0.3 CALM 0 0 0 0 1019.2 1019.3 0.2
29/02:30am 7.4 5.9 6.7 95 0.3 NNE 4 7 2 4 1019.0 1019.1 0.2
29/02:00am 8.0 7.2 6.5 90 0.7 CALM 0 0 0 0 1018.8 1018.9 0.2
29/01:30am 10.3 9.5 8.2 87 1.0 W 2 9 1 5 1018.8 1018.9 0.2
29/01:00am 10.5 9.7 8.3 86 1.1 WSW 2 7 1 4 1018.3 1018.4 0.2
29/12:30am 11.2 9.1 8.4 83 1.4 W 9 15 5 8 1017.9 1018.0 0.2
29/12:00am 11.6 9.2 8.5 81 1.5 W 11 17 6 9 1017.8 1017.9 0.2
 
Date/Time
EST
Temp
°C
App
Temp
°C
Dew
Point
Rel
Hum
%
Delta-T
°C
Wind Press
QNH
hPa
Press
MSL
hPa
Rain
since 9 am
mm
Dir
 
Spd
km/h
Gust
km/h
Spd
kts
Gust
kts
28/11:30pm 12.4 9.2 8.5 77 2.0 W 15 22 8 12 1017.6 1017.7 0.2
28/11:00pm 12.7 9.8 8.0 73 2.3 W 13 20 7 11 1017.5 1017.6 0.2
28/10:30pm 13.0 10.4 7.7 70 2.6 W 11 19 6 10 1017.5 1017.6 0.2
28/10:00pm 13.2 10.9 7.4 68 2.9 WNW 9 15 5 8 1017.6 1017.7 0.2
28/09:30pm 14.0 11.6 7.1 63 3.4 WNW 9 17 5 9 1017.6 1017.7 0.2
28/09:00pm 14.8 11.2 6.9 59 3.9 WNW 15 22 8 12 1017.1 1017.2 0.2
28/08:30pm 15.3 11.7 6.6 56 4.3 WNW 15 26 8 14 1017.0 1017.1 0.2
28/08:00pm 14.8 12.0 6.9 59 3.9 NW 11 17 6 9 1016.6 1016.8 0.2
28/07:30pm 15.6 13.3 7.4 58 4.1 WNW 9 15 5 8 1016.5 1016.7 0.2
28/07:00pm 15.5 13.2 7.5 59 4.0 NW 9 15 5 8 1015.9 1016.1 0.2
28/06:30pm 15.7 13.0 7.2 57 4.2 NW 11 17 6 9 1015.6 1015.8 0.2
28/06:00pm 15.8 13.5 7.3 57 4.3 NNW 9 15 5 8 1015.6 1015.8 0.2
28/05:30pm 15.9 13.9 7.1 56 4.4 NNW 7 11 4 6 1015.4 1015.6 0.2
28/05:00pm 17.2 14.2 7.5 53 4.9 NNW 13 19 7 10 1015.2 1015.3 0.2
28/04:30pm 17.9 15.1 8.5 54 4.9 NNW 13 20 7 11 1015.4 1015.6 0.2
28/04:00pm 18.0 13.8 8.3 53 5.0 NNW 20 33 11 18 1015.5 1015.7 0.2
28/03:30pm 18.2 14.3 8.5 53 5.1 NNW 19 30 10 16 1015.5 1015.7 0.2
28/03:00pm 17.7 15.2 9.8 60 4.2 NW 13 20 7 11 1015.7 1015.9 0.2
28/02:30pm 15.9 14.3 10.2 69 3.0 NW 9 19 5 10 1015.9 1016.1 0.2
28/02:00pm 17.4 14.7 8.8 57 4.5 WNW 13 19 7 10 1016.1 1016.3 0.0
28/01:30pm 18.0 14.1 8.8 55 4.8 NNW 19 30 10 16 1016.4 1016.6 0.0
28/01:00pm 16.9 14.9 10.1 64 3.6 NNW 11 17 6 9 1016.9 1017.0 0.0
28/12:30pm 16.3 13.6 10.4 68 3.2 N 15 24 8 13 1017.2 1017.3 0.0
28/12:00pm 15.7 13.9 10.9 73 2.6 N 11 15 6 8 1017.8 1017.9 0.0
28/11:30am 14.0 12.4 10.2 78 2.0 N 9 13 5 7 1018.1 1018.2 0.0
28/11:00am 12.4 11.1 10.1 86 1.2 N 7 13 4 7 1018.8 1018.9 0.0
28/10:38am 11.0 10.1 10.8 99 0.1 NNE 6 9 3 5 1019.0 1019.1 0.0
28/10:30am 10.7 10.1 10.5 99 0.1 NE 4 7 2 4 1019.2 1019.3 0.0
28/10:07am 9.7 9.6 9.6 99 0.1 CALM 0 0 0 0 1019.4 1019.6 0.0
28/10:00am 9.6 8.8 9.5 99 0.1 NE 4 9 2 5 1019.4 1019.6 0.0
28/09:30am 8.8 7.8 8.7 99 0.0 ESE 4 7 2 4 1019.3 1019.4 0.0
28/09:00am 8.4 6.9 8.3 99 0.0 ESE 6 9 3 5 1019.3 1019.4 0.2
28/08:30am 7.7 6.0 7.6 99 0.0 SE 6 9 3 5 1019.0 1019.1 0.2
28/08:00am 7.5 6.5 7.4 99 0.0 SE 2 9 1 5 1019.0 1019.1 0.2
28/07:30am 7.2 6.5 7.1 99 0.0 CALM 0 7 0 4 1019.2 1019.3 0.2
28/07:00am 7.4 6.4 7.3 99 0.0 SE 2 7 1 4 1019.2 1019.3 0.2
28/06:30am 7.6 6.3 7.5 99 0.0 SSE 4 9 2 5 1019.0 1019.1 0.0
28/06:00am 7.5 5.6 7.4 99 0.0 SE 7 11 4 6 1018.5 1018.6 0.0
28/05:30am 7.5 6.5 7.4 99 0.0 SE 2 7 1 4 1018.5 1018.6 0.0
28/05:00am 7.6 5.7 7.5 99 0.0 SE 7 11 4 6 1018.6 1018.7 0.0
28/04:30am 8.0 5.8 7.9 99 0.0 SSE 9 13 5 7 1018.9 1019.0 0.0
28/04:00am 7.5 5.2 7.4 99 0.0 SSE 9 13 5 7 1018.8 1018.9 0.0
28/03:30am 7.3 6.7 7.2 99 0.0 CALM 0 0 0 0 1018.7 1018.8 0.0
28/03:16am 7.6 5.9 7.5 99 0.0 SE 6 9 3 5 1018.8 1018.9 0.0
28/03:00am 8.0 7.1 7.9 99 0.0 SSE 2 9 1 5 1019.0 1019.1 0.0
28/02:38am 8.1 6.9 8.0 99 0.0 SE 4 11 2 6 1019.1 1019.2 0.0
28/02:30am 8.2 6.1 8.1 99 0.0 SE 9 13 5 7 1019.2 1019.3 0.0
28/02:28am 8.3 6.2 8.2 99 0.0 SE 9 13 5 7 1019.2 1019.3 0.0
28/02:00am 7.7 6.0 7.6 99 0.0 SE 6 11 3 6 1019.4 1019.6 0.0
28/01:30am 7.5 5.2 7.4 99 0.0 SSE 9 11 5 6 1019.4 1019.6 0.0
28/01:00am 6.6 5.0 6.5 99 0.0 SE 4 9 2 5 1019.6 1019.8 0.0
28/12:30am 6.7 5.9 6.6 99 0.0 CALM 0 0 0 0 1019.6 1019.8 0.0
28/12:07am 6.9 5.0 6.8 99 0.0 SSE 6 7 3 4 1019.8 1020.0 0.0
28/12:00am 7.3 5.3 7.2 99 0.0 SSE 7 7 4 4 1019.8 1020.0 0.0
 
Date/Time
EST
Temp
°C
App
Temp
°C
Dew
Point
Rel
Hum
%
Delta-T
°C
Wind Press
QNH
hPa
Press
MSL
hPa
Rain
since 9 am
mm
Dir
 
Spd
km/h
Gust
km/h
Spd
kts
Gust
kts
27/11:30pm 7.3 5.4 6.9 97 0.2 SSE 6 7 3 4 1020.0 1020.2 0.0
27/11:00pm 9.1 8.8 8.8 98 0.1 CALM 0 0 0 0 1020.1 1020.3 0.0
27/10:30pm 8.4 7.9 7.8 96 0.3 CALM 0 0 0 0 1020.2 1020.4 0.0
27/10:00pm 8.4 7.8 7.5 94 0.4 CALM 0 0 0 0 1020.1 1020.3 0.0
27/09:30pm 9.8 9.4 8.4 91 0.7 CALM 0 0 0 0 1020.0 1020.2 0.0
27/09:00pm 12.0 12.1 10.2 89 0.9 CALM 0 0 0 0 1019.9 1020.1 0.0
27/08:30pm 12.5 12.6 10.2 86 1.2 CALM 0 0 0 0 1019.9 1020.1 0.0
27/08:00pm 13.3 13.4 10.3 82 1.6 CALM 0 6 0 3 1019.9 1020.1 0.0
27/07:30pm 13.5 11.8 9.7 78 2.0 ENE 9 15 5 8 1019.9 1020.1 0.0
27/07:00pm 13.3 12.3 10.3 82 1.6 ENE 6 11 3 6 1019.7 1019.9 0.0
27/06:30pm 13.3 12.1 9.5 78 2.0 ENE 6 9 3 5 1019.5 1019.7 0.0
27/06:00pm 13.2 12.4 9.8 80 1.8 E 4 11 2 6 1019.3 1019.4 0.0
27/05:30pm 13.9 13.9 9.9 77 2.1 CALM 0 7 0 4 1019.0 1019.1 0.0
27/05:00pm 15.1 15.1 9.9 71 2.7 CALM 0 0 0 0 1018.9 1019.0 0.0
27/04:30pm 16.4 15.1 10.0 66 3.4 NE 7 11 4 6 1019.0 1019.1 0.0
27/04:00pm 16.9 14.0 9.8 63 3.8 NNE 15 19 8 10 1019.0 1019.1 0.0
27/03:30pm 17.0 14.9 9.7 62 3.9 NNE 11 17 6 9 1019.2 1019.3 0.0
27/03:00pm 17.0 15.3 9.9 63 3.8 N 9 13 5 7 1019.2 1019.3 0.0
27/02:30pm 16.5 14.4 9.7 64 3.6 NNE 11 17 6 9 1019.1 1019.2 0.0
27/02:00pm 16.0 13.4 9.4 65 3.4 NNE 13 19 7 10 1019.5 1019.7 0.0
27/01:30pm 15.4 13.7 10.0 70 2.8 ENE 9 15 5 8 1019.9 1020.1 0.0
27/01:00pm 14.1 11.4 9.1 72 2.6 NE 13 17 7 9 1020.2 1020.4 0.0
27/12:30pm 13.4 10.7 8.9 74 2.3 NNE 13 17 7 9 1020.8 1021.0 0.0
27/12:00pm 13.3 10.6 8.8 74 2.3 NNE 13 17 7 9 1021.1 1021.3 0.0
27/11:30am 12.1 9.6 8.4 78 1.8 NE 11 15 6 8 1021.6 1021.8 0.0
27/11:00am 12.1 10.1 8.6 79 1.7 NE 9 15 5 8 1021.7 1021.9 0.0
27/10:30am 12.0 9.1 8.3 78 1.8 NE 13 20 7 11 1022.0 1022.1 0.0
27/10:00am 11.4 9.3 8.1 80 1.6 ENE 9 13 5 7 1022.4 1022.5 0.0
27/09:30am 10.8 9.1 8.2 84 1.3 ENE 7 11 4 6 1022.4 1022.5 0.0
27/09:00am 10.1 8.0 8.2 88 0.9 E 9 13 5 7 1022.4 1022.5 0.2
27/08:30am 9.4 8.2 8.0 91 0.7 E 4 9 2 5 1022.5 1022.6 0.2
27/08:00am 9.0 7.1 7.6 91 0.7 SE 7 9 4 5 1022.1 1022.2 0.2
27/07:30am 9.1 7.4 7.4 89 0.8 ESE 6 9 3 5 1022.0 1022.1 0.0
27/07:00am 8.7 6.9 7.2 90 0.7 SE 6 7 3 4 1022.0 1022.1 0.0
27/06:30am 8.8 6.8 7.1 89 0.8 SE 7 9 4 5 1021.6 1021.8 0.0
27/06:00am 8.9 6.9 7.0 88 0.9 SE 7 9 4 5 1021.7 1021.9 0.0
27/05:30am 9.2 6.8 7.0 86 1.0 SE 9 13 5 7 1021.6 1021.8 0.0
27/05:00am 9.4 7.4 7.0 85 1.1 SE 7 11 4 6 1021.9 1022.0 0.0
27/04:30am 9.4 7.3 6.8 84 1.2 ESE 7 11 4 6 1021.7 1021.9 0.0
27/04:00am 9.0 7.0 7.0 87 0.9 SE 7 11 4 6 1022.1 1022.2 0.0
27/03:30am 9.1 7.1 7.1 87 1.0 SE 7 11 4 6 1022.3 1022.4 0.0
27/03:00am 8.8 6.8 6.9 88 0.9 SE 7 11 4 6 1022.7 1022.8 0.0
27/02:30am 8.9 6.9 7.0 88 0.9 SE 7 9 4 5 1022.9 1023.0 0.0
27/02:00am 8.8 6.4 7.1 89 0.8 SE 9 13 5 7 1023.0 1023.1 0.0
27/01:30am 8.3 6.3 6.9 91 0.7 SE 7 9 4 5 1023.3 1023.4 0.0
27/01:00am 7.7 5.6 6.8 94 0.4 SE 7 7 4 4 1023.6 1023.8 0.0
27/12:30am 6.4 4.9 4.9 90 0.7 SSE 2 9 1 5 1023.9 1024.1 0.0
27/12:00am 7.9 5.8 5.9 87 0.9 ESE 6 7 3 4 1024.0 1024.2 0.0
 
Date/Time
EST
Temp
°C
App
Temp
°C
Dew
Point
Rel
Hum
%
Delta-T
°C
Wind Press
QNH
hPa
Press
MSL
hPa
Rain
since 9 am
mm
Dir
 
Spd
km/h
Gust
km/h
Spd
kts
Gust
kts
26/11:30pm 9.1 7.2 6.9 86 1.0 SE 6 7 3 4 1024.3 1024.5 0.0
26/11:00pm 9.8 8.0 7.1 83 1.3 ESE 6 7 3 4 1024.4 1024.6 0.0
26/10:30pm 9.7 7.9 7.1 84 1.2 E 6 9 3 5 1024.6 1024.8 0.0
26/10:00pm 9.2 8.6 7.2 87 0.9 CALM 0 0 0 0 1024.8 1025.0 0.0
26/09:30pm 9.3 8.6 6.9 85 1.1 CALM 0 0 0 0 1024.9 1025.1 0.0
26/09:00pm 9.4 7.9 7.0 85 1.1 SE 4 7 2 4 1024.8 1025.0 0.0
26/08:30pm 9.3 8.2 6.7 84 1.2 SE 2 6 1 3 1024.7 1024.9 0.0
26/08:00pm 8.5 6.3 6.3 86 1.0 SE 7 9 4 5 1024.8 1025.0 0.0
26/07:30pm 8.7 6.6 6.0 83 1.2 SE 6 9 3 5 1025.1 1025.3 0.0
26/07:00pm 10.1 9.3 6.6 79 1.6 CALM 0 0 0 0 1025.2 1025.4 0.0
26/06:30pm 10.2 9.5 6.9 80 1.6 CALM 0 0 0 0 1025.2 1025.4 0.0
26/06:00pm 11.2 10.5 7.1 76 2.0 CALM 0 0 0 0 1025.4 1025.6 0.0
26/05:30pm 11.5 10.8 7.0 74 2.2 CALM 0 6 0 3 1025.3 1025.5 0.0
26/05:00pm 11.6 9.5 6.7 72 2.3 ENE 7 11 4 6 1025.3 1025.5 0.0
26/04:30pm 13.1 11.0 6.5 64 3.2 NE 7 11 4 6 1025.3 1025.5 0.0

Other Formats:

Comma delimited format used in spreadsheet applications
http://www.bom.gov.au/fwo/IDV60801/IDV60801.94855.axf

JavaScript Object Notation format (JSON) in row-major order
http://www.bom.gov.au/fwo/IDV60801/IDV60801.94855.json